KJCT/JCT METAR and TAF weather

Enter ICAO airport designator
Station Type Date Time Source
KJCT METAR 2021/09/16 20:51 UTC NOAA

KJCT 162051Z AUTO 10SM CLR 33/15 A2988 RMK AO2 SLP081 T03330150 58028


Station Type Date Time Source
KJCT Decoded METAR 2021/09/16 20:51 UTC NOAA

KIMBLE COUNTY AIRPORT, TX, United States (KJCT) 30-31N 099-46W 523M
Sep 16, 2021 - 04:51 PM EDT / 2021.09.16 2051 UTC
Visibility: 10 mile(s):0
Sky conditions: clear
Temperature: 91.9 F (33.3 C)
Dew Point: 59.0 F (15.0 C)
Relative Humidity: 33%
Pressure (altimeter): 29.88 in. Hg (1011 hPa)
Pressure tendency: 0.08 inches (2.8 hPa) lower than three hours ago
ob: KJCT 162051Z AUTO 10SM CLR 33/15 A2988 RMK AO2 SLP081 T03330150 58028
cycle: 21

Station Type Date Time Source
KJCT TAF 2021/09/16 18:22 UTC NOAA

TAF KJCT 161720Z 1618/1718 09005KT P6SM SKC
FM171500 20003KT P6SM SKC

Example: see airport list